sensor_id;sensor_type;location;lat;lon;timestamp;pressure;altitude;pressure_sealevel;temperature;humidity
64521;BME280;50896;46.714;17.322;2023-01-29T00:02:06;101322.38;;;0.48;100.00
64521;BME280;50896;46.714;17.322;2023-01-29T00:04:33;101333.91;;;0.44;100.00
64521;BME280;50896;46.714;17.322;2023-01-29T00:07:00;101338.84;;;0.50;100.00
64521;BME280;50896;46.714;17.322;2023-01-29T00:09:27;101330.06;;;0.51;100.00
64521;BME280;50896;46.714;17.322;2023-01-29T00:11:54;101338.00;;;0.49;100.00
64521;BME280;50896;46.714;17.322;2023-01-29T00:14:21;101334.41;;;0.52;100.00
64521;BME280;50896;46.714;17.322;2023-01-29T00:16:48;101335.38;;;0.49;100.00
64521;BME280;50896;46.714;17.322;2023-01-29T00:19:14;101339.84;;;0.47;100.00
64521;BME280;50896;46.714;17.322;2023-01-29T00:21:41;101335.38;;;0.49;100.00
64521;BME280;50896;46.714;17.322;2023-01-29T00:24:09;101338.84;;;0.50;100.00
64521;BME280;50896;46.714;17.322;2023-01-29T00:26:36;101343.63;;;0.59;100.00
64521;BME280;50896;46.714;17.322;2023-01-29T00:29:05;101351.56;;;0.58;100.00
64521;BME280;50896;46.714;17.322;2023-01-29T00:31:31;101348.56;;;0.48;100.00
64521;BME280;50896;46.714;17.322;2023-01-29T00:33:58;101354.47;;;0.51;100.00
64521;BME280;50896;46.714;17.322;2023-01-29T00:36:26;101346.78;;;0.48;100.00
64521;BME280;50896;46.714;17.322;2023-01-29T00:38:57;101356.09;;;0.54;100.00
64521;BME280;50896;46.714;17.322;2023-01-29T00:41:31;101355.53;;;0.47;100.00
64521;BME280;50896;46.714;17.322;2023-01-29T00:44:17;101360.34;;;0.57;100.00
64521;BME280;50896;46.714;17.322;2023-01-29T00:47:07;101354.41;;;0.53;100.00
64521;BME280;50896;46.714;17.322;2023-01-29T00:49:56;101355.19;;;0.55;100.00
64521;BME280;50896;46.714;17.322;2023-01-29T00:52:23;101356.47;;;0.46;100.00
64521;BME280;50896;46.714;17.322;2023-01-29T00:54:51;101369.50;;;0.65;100.00
64521;BME280;50896;46.714;17.322;2023-01-29T00:57:19;101356.41;;;0.65;100.00
64521;BME280;50896;46.714;17.322;2023-01-29T00:59:46;101359.75;;;0.69;100.00
64521;BME280;50896;46.714;17.322;2023-01-29T01:02:13;101363.06;;;0.73;100.00
64521;BME280;50896;46.714;17.322;2023-01-29T01:04:58;101369.22;;;0.72;100.00
64521;BME280;50896;46.714;17.322;2023-01-29T01:07:29;101362.94;;;0.57;100.00
64521;BME280;50896;46.714;17.322;2023-01-29T01:09:56;101365.78;;;0.52;100.00
64521;BME280;50896;46.714;17.322;2023-01-29T01:12:41;101369.97;;;0.56;100.00
64521;BME280;50896;46.714;17.322;2023-01-29T01:15:09;101369.97;;;0.56;100.00
64521;BME280;50896;46.714;17.322;2023-01-29T01:17:36;101370.88;;;0.55;100.00
64521;BME280;50896;46.714;17.322;2023-01-29T01:20:03;101370.16;;;0.51;100.00
64521;BME280;50896;46.714;17.322;2023-01-29T01:22:30;101374.56;;;0.51;100.00
64521;BME280;50896;46.714;17.322;2023-01-29T01:24:57;101367.44;;;0.55;100.00
64521;BME280;50896;46.714;17.322;2023-01-29T01:27:24;101363.19;;;0.52;100.00
64521;BME280;50896;46.714;17.322;2023-01-29T01:29:51;101367.13;;;0.61;100.00
64521;BME280;50896;46.714;17.322;2023-01-29T01:32:18;101361.53;;;0.68;100.00
64521;BME280;50896;46.714;17.322;2023-01-29T01:34:45;101370.53;;;0.63;100.00
64521;BME280;50896;46.714;17.322;2023-01-29T01:37:12;101365.28;;;0.63;100.00
64521;BME280;50896;46.714;17.322;2023-01-29T01:39:39;101368.50;;;0.68;100.00
64521;BME280;50896;46.714;17.322;2023-01-29T01:42:11;101362.28;;;0.71;100.00
64521;BME280;50896;46.714;17.322;2023-01-29T01:45:16;101367.06;;;0.80;100.00
64521;BME280;50896;46.714;17.322;2023-01-29T01:47:47;101369.84;;;0.77;100.00
64521;BME280;50896;46.714;17.322;2023-01-29T01:50:18;101366.28;;;0.78;100.00
64521;BME280;50896;46.714;17.322;2023-01-29T01:52:52;101374.06;;;0.79;100.00
64521;BME280;50896;46.714;17.322;2023-01-29T01:55:24;101376.75;;;0.78;100.00
64521;BME280;50896;46.714;17.322;2023-01-29T01:57:56;101369.69;;;0.80;100.00
64521;BME280;50896;46.714;17.322;2023-01-29T02:00:25;101365.69;;;0.73;100.00
64521;BME280;50896;46.714;17.322;2023-01-29T02:02:53;101385.41;;;0.80;100.00
64521;BME280;50896;46.714;17.322;2023-01-29T02:05:40;101374.06;;;0.79;100.00
64521;BME280;50896;46.714;17.322;2023-01-29T02:08:41;101372.31;;;0.80;100.00
64521;BME280;50896;46.714;17.322;2023-01-29T02:11:29;101382.94;;;0.77;100.00
64521;BME280;50896;46.714;17.322;2023-01-29T02:13:56;101382.94;;;0.77;100.00
64521;BME280;50896;46.714;17.322;2023-01-29T02:16:24;101387.38;;;0.75;100.00
64521;BME280;50896;46.714;17.322;2023-01-29T02:18:51;101384.91;;;0.72;100.00
64521;BME280;50896;46.714;17.322;2023-01-29T02:21:48;101385.59;;;0.75;100.00
64521;BME280;50896;46.714;17.322;2023-01-29T02:24:20;101394.31;;;0.76;100.00
64521;BME280;50896;46.714;17.322;2023-01-29T02:32:29;101390.00;;;0.75;100.00
64521;BME280;50896;46.714;17.322;2023-01-29T02:40:53;101396.22;;;0.72;100.00
64521;BME280;50896;46.714;17.322;2023-01-29T02:48:28;101411.94;;;0.72;100.00
64521;BME280;50896;46.714;17.322;2023-01-29T02:51:07;101401.47;;;0.72;100.00
64521;BME280;50896;46.714;17.322;2023-01-29T02:53:53;101412.00;;;0.71;100.00
64521;BME280;50896;46.714;17.322;2023-01-29T02:56:29;101406.69;;;0.72;100.00
64521;BME280;50896;46.714;17.322;2023-01-29T02:59:14;101416.97;;;0.77;100.00
64521;BME280;50896;46.714;17.322;2023-01-29T03:02:07;101407.41;;;0.76;100.00
64521;BME280;50896;46.714;17.322;2023-01-29T03:04:42;101416.97;;;0.77;100.00
64521;BME280;50896;46.714;17.322;2023-01-29T03:07:21;101418.88;;;0.73;100.00
64521;BME280;50896;46.714;17.322;2023-01-29T03:10:17;101411.66;;;0.78;100.00
64521;BME280;50896;46.714;17.322;2023-01-29T03:12:51;101414.28;;;0.78;100.00
64521;BME280;50896;46.714;17.322;2023-01-29T03:15:27;101421.25;;;0.78;100.00
64521;BME280;50896;46.714;17.322;2023-01-29T03:18:17;101418.44;;;0.82;100.00
64521;BME280;50896;46.714;17.322;2023-01-29T03:20:57;101421.06;;;0.82;100.00
64521;BME280;50896;46.714;17.322;2023-01-29T03:23:30;101416.56;;;0.84;100.00
64521;BME280;50896;46.714;17.322;2023-01-29T03:26:19;101415.66;;;0.85;100.00
64521;BME280;50896;46.714;17.322;2023-01-29T03:29:06;101422.66;;;0.85;100.00
64521;BME280;50896;46.714;17.322;2023-01-29T03:31:55;101414.78;;;0.85;100.00
64521;BME280;50896;46.714;17.322;2023-01-29T03:34:50;101409.50;;;0.87;100.00
64521;BME280;50896;46.714;17.322;2023-01-29T03:37:28;101424.19;;;0.89;100.00
64521;BME280;50896;46.714;17.322;2023-01-29T03:39:57;101429.34;;;0.91;100.00
64521;BME280;50896;46.714;17.322;2023-01-29T03:51:13;101419.34;;;0.81;100.00
64521;BME280;50896;46.714;17.322;2023-01-29T03:53:48;101412.50;;;0.79;100.00
64521;BME280;50896;46.714;17.322;2023-01-29T03:56:35;101429.75;;;0.83;100.00
64521;BME280;50896;46.714;17.322;2023-01-29T03:59:17;101434.97;;;0.83;100.00
64521;BME280;50896;46.714;17.322;2023-01-29T04:02:14;101429.91;;;0.80;100.00
64521;BME280;50896;46.714;17.322;2023-01-29T04:04:46;101434.19;;;0.81;100.00
64521;BME280;50896;46.714;17.322;2023-01-29T04:07:19;101435.91;;;0.82;100.00
64521;BME280;50896;46.714;17.322;2023-01-29T04:10:10;101432.88;;;0.72;100.00
64521;BME280;50896;46.714;17.322;2023-01-29T04:12:55;101438.09;;;0.72;100.00
64521;BME280;50896;46.714;17.322;2023-01-29T04:15:27;101442.44;;;0.73;100.00
64521;BME280;50896;46.714;17.322;2023-01-29T04:17:56;101429.25;;;0.75;100.00
64521;BME280;50896;46.714;17.322;2023-01-29T04:20:34;101436.34;;;0.73;100.00
64521;BME280;50896;46.714;17.322;2023-01-29T04:23:05;101437.34;;;0.70;100.00
64521;BME280;50896;46.714;17.322;2023-01-29T04:25:44;101444.34;;;0.70;100.00
64521;BME280;50896;46.714;17.322;2023-01-29T04:28:20;101440.72;;;0.72;100.00
64521;BME280;50896;46.714;17.322;2023-01-29T04:31:03;101442.34;;;0.75;100.00
64521;BME280;50896;46.714;17.322;2023-01-29T04:33:55;101440.09;;;0.67;100.00
64521;BME280;50896;46.714;17.322;2023-01-29T04:42:01;101437.28;;;0.72;100.00
64521;BME280;50896;46.714;17.322;2023-01-29T04:44:49;101433.88;;;0.70;100.00
64521;BME280;50896;46.714;17.322;2023-01-29T04:47:28;101431.03;;;0.74;100.00
64521;BME280;50896;46.714;17.322;2023-01-29T04:52:59;101433.03;;;0.69;100.00
64521;BME280;50896;46.714;17.322;2023-01-29T04:55:35;101437.78;;;0.61;100.00
64521;BME280;50896;46.714;17.322;2023-01-29T04:58:33;101438.69;;;0.60;100.00
64521;BME280;50896;46.714;17.322;2023-01-29T05:01:04;101439.47;;;0.62;100.00
64521;BME280;50896;46.714;17.322;2023-01-29T05:03:33;101433.03;;;0.50;100.00
64521;BME280;50896;46.714;17.322;2023-01-29T05:06:03;101440.88;;;0.50;100.00
64521;BME280;50896;46.714;17.322;2023-01-29T05:08:31;101447.06;;;0.49;100.00
64521;BME280;50896;46.714;17.322;2023-01-29T05:10:59;101447.59;;;0.56;100.00
64521;BME280;50896;46.714;17.322;2023-01-29T05:13:28;101439.56;;;0.60;100.00
64521;BME280;50896;46.714;17.322;2023-01-29T05:16:00;101442.25;;;0.59;100.00
64521;BME280;50896;46.714;17.322;2023-01-29T05:18:31;101442.94;;;0.62;100.00
64521;BME280;50896;46.714;17.322;2023-01-29T05:21:01;101446.69;;;0.57;100.00
64521;BME280;50896;46.714;17.322;2023-01-29T05:23:30;101452.84;;;0.56;100.00
64521;BME280;50896;46.714;17.322;2023-01-29T05:25:56;101443.25;;;0.56;100.00
64521;BME280;50896;46.714;17.322;2023-01-29T05:28:23;101454.47;;;0.58;100.00
64521;BME280;50896;46.714;17.322;2023-01-29T05:30:53;101456.75;;;0.47;100.00
64521;BME280;50896;46.714;17.322;2023-01-29T05:33:28;101460.06;;;0.50;100.00
64521;BME280;50896;46.714;17.322;2023-01-29T05:35:58;101460.00;;;0.52;100.00
64521;BME280;50896;46.714;17.322;2023-01-29T05:38:25;101457.38;;;0.52;100.00
64521;BME280;50896;46.714;17.322;2023-01-29T05:40:52;101446.91;;;0.52;100.00
64521;BME280;50896;46.714;17.322;2023-01-29T05:43:21;101458.44;;;0.48;100.00
64521;BME280;50896;46.714;17.322;2023-01-29T05:48:19;101457.66;;;0.46;100.00
64521;BME280;50896;46.714;17.322;2023-01-29T05:50:46;101461.00;;;0.49;100.00
64521;BME280;50896;46.714;17.322;2023-01-29T05:53:13;101464.03;;;0.40;100.00
64521;BME280;50896;46.714;17.322;2023-01-29T05:55:43;101462.06;;;0.45;100.00
64521;BME280;50896;46.714;17.322;2023-01-29T05:58:11;101454.50;;;0.39;100.00
64521;BME280;50896;46.714;17.322;2023-01-29T06:00:38;101463.19;;;0.40;100.00
64521;BME280;50896;46.714;17.322;2023-01-29T06:03:04;101468.50;;;0.38;100.00
64521;BME280;50896;46.714;17.322;2023-01-29T06:05:31;101465.56;;;0.44;100.00
64521;BME280;50896;46.714;17.322;2023-01-29T06:07:58;101467.28;;;0.45;100.00
64521;BME280;50896;46.714;17.322;2023-01-29T06:10:25;101474.16;;;0.48;100.00
64521;BME280;50896;46.714;17.322;2023-01-29T06:12:52;101475.28;;;0.42;100.00
64521;BME280;50896;46.714;17.322;2023-01-29T06:15:19;101461.47;;;0.39;100.00
64521;BME280;50896;46.714;17.322;2023-01-29T06:17:46;101478.03;;;0.39;100.00
64521;BME280;50896;46.714;17.322;2023-01-29T06:20:12;101468.50;;;0.38;100.00
64521;BME280;50896;46.714;17.322;2023-01-29T06:22:40;101471.94;;;0.39;100.00
64521;BME280;50896;46.714;17.322;2023-01-29T06:25:07;101480.50;;;0.42;100.00
64521;BME280;50896;46.714;17.322;2023-01-29T06:27:34;101477.19;;;0.39;100.00
64521;BME280;50896;46.714;17.322;2023-01-29T06:30:04;101483.28;;;0.39;100.00
64521;BME280;50896;46.714;17.322;2023-01-29T06:32:32;101483.97;;;0.43;100.00
64521;BME280;50896;46.714;17.322;2023-01-29T06:34:59;101479.78;;;0.39;100.00
64521;BME280;50896;46.714;17.322;2023-01-29T06:37:26;101486.72;;;0.40;100.00
64521;BME280;50896;46.714;17.322;2023-01-29T06:39:53;101500.72;;;0.39;100.00
64521;BME280;50896;46.714;17.322;2023-01-29T06:42:19;101498.03;;;0.40;100.00
64521;BME280;50896;46.714;17.322;2023-01-29T06:44:54;101497.41;;;0.35;100.00
64521;BME280;50896;46.714;17.322;2023-01-29T06:47:22;101514.72;;;0.38;100.00
64521;BME280;50896;46.714;17.322;2023-01-29T06:49:49;101516.50;;;0.37;100.00
64521;BME280;50896;46.714;17.322;2023-01-29T06:52:16;101522.53;;;0.39;100.00
64521;BME280;50896;46.714;17.322;2023-01-29T06:54:43;101519.31;;;0.32;100.00
64521;BME280;50896;46.714;17.322;2023-01-29T06:57:10;101515.91;;;0.30;100.00
64521;BME280;50896;46.714;17.322;2023-01-29T06:59:37;101529.66;;;0.36;100.00
64521;BME280;50896;46.714;17.322;2023-01-29T07:02:03;101522.72;;;0.34;100.00
64521;BME280;50896;46.714;17.322;2023-01-29T07:04:30;101526.38;;;0.30;100.00
64521;BME280;50896;46.714;17.322;2023-01-29T07:06:58;101529.94;;;0.29;100.00
64521;BME280;50896;46.714;17.322;2023-01-29T07:09:25;101524.81;;;0.26;100.00
64521;BME280;50896;46.714;17.322;2023-01-29T07:11:52;101524.63;;;0.31;100.00
64521;BME280;50896;46.714;17.322;2023-01-29T07:14:19;101525.31;;;0.34;100.00
64521;BME280;50896;46.714;17.322;2023-01-29T07:16:45;101527.94;;;0.34;100.00
64521;BME280;50896;46.714;17.322;2023-01-29T07:19:12;101528.00;;;0.33;100.00
64521;BME280;50896;46.714;17.322;2023-01-29T07:21:39;101530.69;;;0.31;100.00
64521;BME280;50896;46.714;17.322;2023-01-29T07:24:06;101525.41;;;0.33;100.00
64521;BME280;50896;46.714;17.322;2023-01-29T07:26:33;101529.06;;;0.29;100.00
64521;BME280;50896;46.714;17.322;2023-01-29T07:29:00;101525.47;;;0.31;100.00
64521;BME280;50896;46.714;17.322;2023-01-29T07:31:27;101521.81;;;0.36;100.00
64521;BME280;50896;46.714;17.322;2023-01-29T07:33:54;101523.34;;;0.40;100.00
64521;BME280;50896;46.714;17.322;2023-01-29T07:36:21;101516.41;;;0.39;100.00
64521;BME280;50896;46.714;17.322;2023-01-29T07:38:49;101517.34;;;0.38;100.00
64521;BME280;50896;46.714;17.322;2023-01-29T07:41:16;101519.69;;;0.44;100.00
64521;BME280;50896;46.714;17.322;2023-01-29T07:43:45;101516.94;;;0.47;100.00
64521;BME280;50896;46.714;17.322;2023-01-29T07:46:11;101514.16;;;0.50;100.00
64521;BME280;50896;46.714;17.322;2023-01-29T07:48:38;101517.66;;;0.50;100.00
64521;BME280;50896;46.714;17.322;2023-01-29T07:51:05;101518.56;;;0.49;100.00
64521;BME280;50896;46.714;17.322;2023-01-29T07:53:32;101519.41;;;0.50;100.00
64521;BME280;50896;46.714;17.322;2023-01-29T07:55:59;101515.22;;;0.46;100.00
64521;BME280;50896;46.714;17.322;2023-01-29T07:58:26;101512.41;;;0.50;100.00
64521;BME280;50896;46.714;17.322;2023-01-29T08:00:52;101520.94;;;0.54;100.00
64521;BME280;50896;46.714;17.322;2023-01-29T08:03:19;101523.22;;;0.62;100.00
64521;BME280;50896;46.714;17.322;2023-01-29T08:05:46;101531.56;;;0.51;100.00
64521;BME280;50896;46.714;17.322;2023-01-29T08:08:13;101527.38;;;0.47;100.00
64521;BME280;50896;46.714;17.322;2023-01-29T08:10:41;101525.34;;;0.54;100.00
64521;BME280;50896;46.714;17.322;2023-01-29T08:13:08;101527.81;;;0.57;100.00
64521;BME280;50896;46.714;17.322;2023-01-29T08:15:35;101530.66;;;0.52;100.00
64521;BME280;50896;46.714;17.322;2023-01-29T08:18:05;101519.75;;;0.61;100.00
64521;BME280;50896;46.714;17.322;2023-01-29T08:20:32;101522.25;;;0.64;100.00
64521;BME280;50896;46.714;17.322;2023-01-29T08:23:04;101520.31;;;0.68;100.00
64521;BME280;50896;46.714;17.322;2023-01-29T08:25:32;101524.44;;;0.55;100.00
64521;BME280;50896;46.714;17.322;2023-01-29T08:28:00;101530.50;;;0.55;100.00
64521;BME280;50896;46.714;17.322;2023-01-29T08:30:29;101530.22;;;0.61;100.00
64521;BME280;50896;46.714;17.322;2023-01-29T08:32:57;101525.84;;;0.62;100.00
64521;BME280;50896;46.714;17.322;2023-01-29T08:35:24;101526.44;;;0.68;100.00
64521;BME280;50896;46.714;17.322;2023-01-29T08:37:56;101523.00;;;0.66;100.00
64521;BME280;50896;46.714;17.322;2023-01-29T08:40:26;101523.16;;;0.63;100.00
64521;BME280;50896;46.714;17.322;2023-01-29T08:43:02;101536.25;;;0.63;100.00
64521;BME280;50896;46.714;17.322;2023-01-29T08:45:33;101532.16;;;0.58;100.00
64521;BME280;50896;46.714;17.322;2023-01-29T08:48:01;101534.97;;;0.53;100.00
64521;BME280;50896;46.714;17.322;2023-01-29T08:50:28;101539.56;;;0.48;100.00
64521;BME280;50896;46.714;17.322;2023-01-29T08:52:57;101542.03;;;0.51;100.00
64521;BME280;50896;46.714;17.322;2023-01-29T08:55:25;101551.44;;;0.55;100.00
64521;BME280;50896;46.714;17.322;2023-01-29T08:57:52;101551.78;;;0.47;100.00
64521;BME280;50896;46.714;17.322;2023-01-29T09:00:19;101553.50;;;0.48;100.00
64521;BME280;50896;46.714;17.322;2023-01-29T09:02:46;101560.22;;;0.54;100.00
64521;BME280;50896;46.714;17.322;2023-01-29T09:05:13;101557.53;;;0.56;100.00
64521;BME280;50896;46.714;17.322;2023-01-29T09:07:41;101566.44;;;0.51;100.00
64521;BME280;50896;46.714;17.322;2023-01-29T09:10:08;101568.22;;;0.51;100.00
64521;BME280;50896;46.714;17.322;2023-01-29T09:12:35;101564.75;;;0.50;100.00
64521;BME280;50896;46.714;17.322;2023-01-29T09:15:02;101567.16;;;0.55;100.00
64521;BME280;50896;46.714;17.322;2023-01-29T09:17:29;101565.81;;;0.46;100.00
64521;BME280;50896;46.714;17.322;2023-01-29T09:19:56;101568.41;;;0.46;100.00
64521;BME280;50896;46.714;17.322;2023-01-29T09:22:24;101560.56;;;0.46;100.00
64521;BME280;50896;46.714;17.322;2023-01-29T09:24:51;101570.97;;;0.48;100.00
64521;BME280;50896;46.714;17.322;2023-01-29T09:27:17;101569.63;;;0.39;100.00
64521;BME280;50896;46.714;17.322;2023-01-29T09:29:44;101572.22;;;0.39;100.00
64521;BME280;50896;46.714;17.322;2023-01-29T09:32:11;101583.53;;;0.40;100.00
64521;BME280;50896;46.714;17.322;2023-01-29T09:34:38;101592.94;;;0.44;100.00
64521;BME280;50896;46.714;17.322;2023-01-29T09:37:05;101597.53;;;0.39;100.00
64521;BME280;50896;46.714;17.322;2023-01-29T09:39:32;101588.84;;;0.38;100.00
64521;BME280;50896;46.714;17.322;2023-01-29T09:47:34;101598.66;;;0.33;100.00
64521;BME280;50896;46.714;17.322;2023-01-29T09:50:06;101598.72;;;0.31;100.00
64521;BME280;50896;46.714;17.322;2023-01-29T09:52:47;101591.63;;;0.33;100.00
64521;BME280;50896;46.714;17.322;2023-01-29T09:55:36;101591.00;;;0.28;100.00
64521;BME280;50896;46.714;17.322;2023-01-29T09:58:32;101575.75;;;0.38;100.00
64521;BME280;50896;46.714;17.322;2023-01-29T10:06:58;101576.63;;;0.58;100.00
64521;BME280;50896;46.714;17.322;2023-01-29T10:20:27;101563.78;;;0.53;100.00
64521;BME280;50896;46.714;17.322;2023-01-29T10:25:39;101564.47;;;0.57;100.00
64521;BME280;50896;46.714;17.322;2023-01-29T10:28:22;101565.19;;;0.60;100.00
64521;BME280;50896;46.714;17.322;2023-01-29T10:30:56;101578.88;;;0.65;100.00
64521;BME280;50896;46.714;17.322;2023-01-29T10:33:53;101565.88;;;0.64;100.00
64521;BME280;50896;46.714;17.322;2023-01-29T10:36:39;101566.84;;;0.61;100.00
64521;BME280;50896;46.714;17.322;2023-01-29T10:39:19;101567.81;;;0.60;100.00
64521;BME280;50896;46.714;17.322;2023-01-29T10:42:23;101576.50;;;0.61;100.00
64521;BME280;50896;46.714;17.322;2023-01-29T10:50:20;101558.31;;;0.58;100.00
64521;BME280;50896;46.714;17.322;2023-01-29T11:01:12;101566.03;;;0.61;100.00
64521;BME280;50896;46.714;17.322;2023-01-29T11:03:39;101562.41;;;0.63;100.00
64521;BME280;50896;46.714;17.322;2023-01-29T11:06:22;101552.53;;;0.70;100.00
64521;BME280;50896;46.714;17.322;2023-01-29T11:14:27;101553.88;;;0.79;100.00
64521;BME280;50896;46.714;17.322;2023-01-29T11:16:55;101551.31;;;0.77;100.00
64521;BME280;50896;46.714;17.322;2023-01-29T11:19:40;101548.63;;;0.79;100.00
64521;BME280;50896;46.714;17.322;2023-01-29T11:22:16;101549.38;;;0.81;100.00
64521;BME280;50896;46.714;17.322;2023-01-29T11:24:45;101537.16;;;0.81;100.00
64521;BME280;50896;46.714;17.322;2023-01-29T11:27:24;101547.63;;;0.81;100.00
64521;BME280;50896;46.714;17.322;2023-01-29T11:29:52;101547.06;;;0.75;100.00
64521;BME280;50896;46.714;17.322;2023-01-29T11:35:00;101536.09;;;0.85;100.00
64521;BME280;50896;46.714;17.322;2023-01-29T11:39:58;101528.25;;;0.85;100.00
64521;BME280;50896;46.714;17.322;2023-01-29T11:42:29;101523.84;;;0.86;100.00
64521;BME280;50896;46.714;17.322;2023-01-29T11:44:57;101521.22;;;0.86;100.00
64521;BME280;50896;46.714;17.322;2023-01-29T11:47:28;101517.06;;;0.82;100.00
64521;BME280;50896;46.714;17.322;2023-01-29T11:50:00;101512.97;;;0.76;100.00
64521;BME280;50896;46.714;17.322;2023-01-29T11:52:38;101512.13;;;0.76;100.00
64521;BME280;50896;46.714;17.322;2023-01-29T11:55:18;101509.66;;;0.73;100.00
64521;BME280;50896;46.714;17.322;2023-01-29T11:58:02;101504.63;;;0.68;100.00
64521;BME280;50896;46.714;17.322;2023-01-29T12:00:34;101503.84;;;0.66;100.00
64521;BME280;50896;46.714;17.322;2023-01-29T12:05:40;101488.97;;;0.66;100.00
64521;BME280;50896;46.714;17.322;2023-01-29T12:08:15;101493.22;;;0.69;100.00
64521;BME280;50896;46.714;17.322;2023-01-29T12:10:42;101482.84;;;0.67;100.00
64521;BME280;50896;46.714;17.322;2023-01-29T12:15:38;101477.75;;;0.64;100.00
64521;BME280;50896;46.714;17.322;2023-01-29T12:20:44;101463.31;;;0.75;100.00
64521;BME280;50896;46.714;17.322;2023-01-29T12:25:49;101464.41;;;0.88;100.00
64521;BME280;50896;46.714;17.322;2023-01-29T12:36:32;101473.78;;;0.75;100.00
64521;BME280;50896;46.714;17.322;2023-01-29T12:39:02;101470.75;;;0.65;100.00
64521;BME280;50896;46.714;17.322;2023-01-29T12:41:38;101470.47;;;0.52;100.00
64521;BME280;50896;46.714;17.322;2023-01-29T12:45:20;101467.63;;;0.57;100.00
64521;BME280;50896;46.714;17.322;2023-01-29T12:47:40;101464.31;;;0.53;100.00
64521;BME280;50896;46.714;17.322;2023-01-29T12:50:21;101461.81;;;0.50;100.00
64521;BME280;50896;46.714;17.322;2023-01-29T12:52:56;101468.00;;;0.49;100.00
64521;BME280;50896;46.714;17.322;2023-01-29T12:55:38;101452.91;;;0.54;100.00
64521;BME280;50896;46.714;17.322;2023-01-29T12:58:20;101461.75;;;0.51;100.00
64521;BME280;50896;46.714;17.322;2023-01-29T13:00:49;101458.44;;;0.48;100.00
64521;BME280;50896;46.714;17.322;2023-01-29T13:03:26;101453.22;;;0.48;100.00
64521;BME280;50896;46.714;17.322;2023-01-29T13:05:58;101451.25;;;0.53;100.00
64521;BME280;50896;46.714;17.322;2023-01-29T13:08:34;101447.41;;;0.60;100.00
64521;BME280;50896;46.714;17.322;2023-01-29T13:11:07;101449.22;;;0.58;100.00
64521;BME280;50896;46.714;17.322;2023-01-29T13:13:41;101450.09;;;0.59;100.00
64521;BME280;50896;46.714;17.322;2023-01-29T13:16:12;101442.44;;;0.54;100.00
64521;BME280;50896;46.714;17.322;2023-01-29T13:19:02;101447.13;;;0.47;100.00
64521;BME280;50896;46.714;17.322;2023-01-29T13:21:37;101437.50;;;0.48;100.00
64521;BME280;50896;46.714;17.322;2023-01-29T13:24:11;101441.84;;;0.49;100.00
64521;BME280;50896;46.714;17.322;2023-01-29T13:26:43;101442.03;;;0.44;100.00
64521;BME280;50896;46.714;17.322;2023-01-29T13:29:22;101433.19;;;0.47;100.00
64521;BME280;50896;46.714;17.322;2023-01-29T13:32:02;101427.13;;;0.46;100.00
64521;BME280;50896;46.714;17.322;2023-01-29T13:34:35;101432.84;;;0.55;100.00
64521;BME280;50896;46.714;17.322;2023-01-29T13:39:51;101422.31;;;0.56;100.00
64521;BME280;50896;46.714;17.322;2023-01-29T13:42:20;101416.59;;;0.48;100.00
64521;BME280;50896;46.714;17.322;2023-01-29T13:44:54;101416.72;;;0.45;100.00
64521;BME280;50896;46.714;17.322;2023-01-29T13:47:30;101413.66;;;0.54;100.00
64521;BME280;50896;46.714;17.322;2023-01-29T13:52:51;101403.03;;;0.57;100.00
64521;BME280;50896;46.714;17.322;2023-01-29T13:55:22;101408.28;;;0.57;100.00
64521;BME280;50896;46.714;17.322;2023-01-29T13:57:53;101405.19;;;0.49;100.00
64521;BME280;50896;46.714;17.322;2023-01-29T14:08:05;101400.00;;;0.47;100.00
64521;BME280;50896;46.714;17.322;2023-01-29T14:11:27;101400.16;;;0.44;100.00
64521;BME280;50896;46.714;17.322;2023-01-29T14:13:59;101394.78;;;0.47;100.00
64521;BME280;50896;46.714;17.322;2023-01-29T14:16:32;101398.06;;;0.33;100.00
64521;BME280;50896;46.714;17.322;2023-01-29T14:19:02;101393.59;;;0.36;100.00
64521;BME280;50896;46.714;17.322;2023-01-29T14:21:32;101399.59;;;0.38;100.00
64521;BME280;50896;46.714;17.322;2023-01-29T14:24:20;101385.75;;;0.36;100.00
64521;BME280;50896;46.714;17.322;2023-01-29T14:26:53;101386.00;;;0.31;100.00
64521;BME280;50896;46.714;17.322;2023-01-29T14:29:27;101389.09;;;0.39;100.00
64521;BME280;50896;46.714;17.322;2023-01-29T14:35:03;101397.13;;;0.34;100.00
64521;BME280;50896;46.714;17.322;2023-01-29T14:37:38;101397.38;;;0.30;100.00
64521;BME280;50896;46.714;17.322;2023-01-29T14:45:33;101398.44;;;0.26;100.00
64521;BME280;50896;46.714;17.322;2023-01-29T14:48:10;101409.72;;;0.26;100.00
64521;BME280;50896;46.714;17.322;2023-01-29T14:50:48;101404.94;;;0.17;100.00
64521;BME280;50896;46.714;17.322;2023-01-29T14:56:16;101406.16;;;0.10;100.00
64521;BME280;50896;46.714;17.322;2023-01-29T14:58:50;101402.38;;;-0.04;100.00
64521;BME280;50896;46.714;17.322;2023-01-29T15:03:55;101402.00;;;0.04;100.00
64521;BME280;50896;46.714;17.322;2023-01-29T15:06:40;101404.50;;;0.07;100.00
64521;BME280;50896;46.714;17.322;2023-01-29T15:12:27;101394.38;;;-0.01;100.00
64521;BME280;50896;46.714;17.322;2023-01-29T15:15:10;101400.81;;;-0.08;100.00
64521;BME280;50896;46.714;17.322;2023-01-29T15:17:57;101402.53;;;-0.07;100.00
64521;BME280;50896;46.714;17.322;2023-01-29T15:20:35;101406.69;;;-0.03;100.00
64521;BME280;50896;46.714;17.322;2023-01-29T15:23:03;101397.91;;;-0.02;100.00
64521;BME280;50896;46.714;17.322;2023-01-29T15:25:50;101395.25;;;0.00;100.00